Time;durP1;ratioP1;P1;durP2;ratioP2;P2;SDS_P1;SDS_P2;PMS_P1;PMS_P2;Temp;Humidity;BMP_temperature;BMP_pressure;BME280_temperature;BME280_humidity;BME280_pressure;Samples;Min_cycle;Max_cycle;Signal;HPM_P1;HPM_P2
2023/01/03 00:01:58;;;;;;;4.40;4.10;;;;;;;4.06;100.00;101831.78;6079559;23;20250;-71
2023/01/03 00:04:25;;;;;;;4.80;4.43;;;;;;;5.35;100.00;102053.53;6096806;23;20676;-72
2023/01/03 00:06:52;;;;;;;4.30;4.10;;;;;;;5.58;100.00;102076.78;6098653;23;20431;-71
2023/01/03 00:09:21;;;;;;;4.07;3.88;;;;;;;5.73;100.00;102076.66;6042675;23;20430;-71
2023/01/03 00:14:37;;;;;;;3.85;3.65;;;;;;;5.72;100.00;102074.03;6089248;23;20097;-72
2023/01/03 00:17:05;;;;;;;4.93;4.25;;;;;;;5.73;100.00;102088.78;6065324;23;20071;-72
2023/01/03 00:19:34;;;;;;;4.32;4.13;;;;;;;5.85;100.00;102077.38;6082363;23;20101;-72
2023/01/03 00:22:01;;;;;;;4.97;4.65;;;;;;;4.76;100.00;101887.53;6089510;23;20170;-71
2023/01/03 00:24:27;;;;;;;4.25;3.95;;;;;;;5.32;100.00;101996.31;6055133;23;20072;-71
2023/01/03 00:26:56;;;;;;;4.57;4.28;;;;;;;5.86;100.00;102053.91;6100399;23;20025;-71
2023/01/03 00:29:23;;;;;;;4.03;3.83;;;;;;;5.53;100.00;102016.06;6079584;23;20026;-72
2023/01/03 00:31:50;;;;;;;4.18;3.95;;;;;;;5.47;100.00;102026.53;6087392;23;20022;-72
2023/01/03 00:34:16;;;;;;;5.07;4.53;;;;;;;5.49;100.00;102029.97;6066433;23;20014;-71
2023/01/03 00:36:43;;;;;;;4.32;4.13;;;;;;;5.01;100.00;101952.34;6094700;23;20279;-72
2023/01/03 00:39:10;;;;;;;4.10;3.90;;;;;;;5.39;100.00;102031.81;6076489;23;20042;-72
2023/01/03 00:41:40;;;;;;;4.65;4.40;;;;;;;5.84;100.00;102092.16;6098991;23;20041;-71
2023/01/03 00:44:06;;;;;;;4.78;4.55;;;;;;;5.20;100.00;101997.28;6080549;23;20036;-71
2023/01/03 00:46:35;;;;;;;4.00;3.80;;;;;;;5.75;100.00;102095.72;6052949;23;20018;-71
2023/01/03 00:49:02;;;;;;;5.72;5.28;;;;;;;4.80;100.00;101943.84;6085566;23;20034;-71
2023/01/03 00:51:32;;;;;;;4.38;4.18;;;;;;;5.51;100.00;102026.50;6078595;23;20084;-71
2023/01/03 00:54:00;;;;;;;4.05;3.75;;;;;;;5.74;100.00;102082.72;6098547;23;20402;-71
2023/01/03 00:56:30;;;;;;;4.45;4.15;;;;;;;5.71;100.00;102094.03;6083857;23;20024;-72
2023/01/03 00:58:57;;;;;;;3.95;3.75;;;;;;;5.75;100.00;102105.25;6121658;23;20013;-71
2023/01/03 01:01:47;;;;;;;3.95;3.75;;;;;;;5.64;100.00;102107.97;6028546;23;20089;-71
2023/01/03 01:04:17;;;;;;;8.73;4.38;;;;;;;3.80;100.00;101858.75;6090229;23;20030;-72
2023/01/03 01:06:48;;;;;;;4.28;4.07;;;;;;;5.34;100.00;102077.84;6107467;23;20014;-72
2023/01/03 01:09:19;;;;;;;4.32;4.13;;;;;;;5.33;100.00;102107.34;6087803;23;20256;-72
2023/01/03 01:11:46;;;;;;;4.13;3.92;;;;;;;5.20;100.00;102130.88;6088714;23;20501;-71
2023/01/03 01:14:20;;;;;;;4.28;4.07;;;;;;;4.97;100.00;102089.41;6066194;23;20045;-71
2023/01/03 01:16:52;;;;;;;4.90;4.47;;;;;;;5.06;100.00;102122.28;6112849;23;20093;-72
2023/01/03 01:19:22;;;;;;;4.00;3.80;;;;;;;4.88;100.00;102112.00;6052233;23;20420;-72
2023/01/03 01:21:49;;;;;;;4.15;3.95;;;;;;;3.75;100.00;101947.97;6070808;23;20030;-71
2023/01/03 01:24:16;;;;;;;4.63;4.22;;;;;;;3.96;100.00;102015.38;6089998;23;20026;-71
2023/01/03 01:26:44;;;;;;;3.95;3.75;;;;;;;4.65;100.00;102130.31;6107089;23;20104;-70
2023/01/03 01:29:12;;;;;;;4.10;3.90;;;;;;;4.34;100.00;102097.50;6085093;23;20022;-71
2023/01/03 01:31:39;;;;;;;3.80;3.60;;;;;;;4.49;100.00;102127.81;6085215;23;20071;-72
2023/01/03 01:34:07;;;;;;;3.70;3.60;;;;;;;3.44;100.00;101965.34;6082448;23;20037;-71
2023/01/03 01:36:38;;;;;;;3.78;3.58;;;;;;;4.06;100.00;102083.75;6109743;23;20025;-72
2023/01/03 01:39:18;;;;;;;3.95;3.75;;;;;;;4.16;100.00;102113.16;6048961;23;20095;-71
2023/01/03 01:44:45;;;;;;;3.90;3.75;;;;;;;4.22;100.00;102126.13;6083696;23;20061;-70
2023/01/03 01:47:45;;;;;;;4.10;3.90;;;;;;;4.27;100.00;102142.59;6084548;23;20797;-71
2023/01/03 01:50:21;;;;;;;4.40;4.20;;;;;;;3.85;100.00;102082.09;6073537;23;20090;-71
2023/01/03 01:52:53;;;;;;;4.15;3.95;;;;;;;4.05;100.00;102136.59;6095147;23;20009;-71
2023/01/03 01:55:24;;;;;;;4.13;3.92;;;;;;;4.18;100.00;102148.66;6072864;23;20370;-71
2023/01/03 01:57:51;;;;;;;4.35;4.10;;;;;;;4.14;100.00;102156.47;6103454;23;20118;-70
2023/01/03 02:00:18;;;;;;;4.53;4.30;;;;;;;4.10;100.00;102157.34;6072765;23;20030;-71
2023/01/03 02:02:48;;;;;;;6.43;4.20;;;;;;;3.30;100.00;102036.28;6067062;23;20415;-71
2023/01/03 02:05:17;;;;;;;3.67;3.47;;;;;;;3.71;100.00;102120.16;6058340;23;20022;-72
2023/01/03 02:07:47;;;;;;;5.15;4.85;;;;;;;3.93;100.00;102170.34;6105264;23;20049;-71
2023/01/03 02:10:15;;;;;;;3.88;3.67;;;;;;;3.31;100.00;102068.28;6084919;23;20065;-71
2023/01/03 02:13:05;;;;;;;4.25;4.05;;;;;;;3.82;100.00;102164.31;6091804;23;20194;-71
2023/01/03 02:16:02;;;;;;;3.80;3.60;;;;;;;3.45;100.00;102117.56;6096173;23;20032;-71
2023/01/03 02:18:41;;;;;;;3.50;3.30;;;;;;;3.59;100.00;102139.22;6039602;23;20463;-71
2023/01/03 02:21:35;;;;;;;3.40;3.30;;;;;;;3.80;100.00;102172.97;6075313;23;20493;-71
2023/01/03 02:24:21;;;;;;;3.90;3.70;;;;;;;3.37;100.00;102117.59;6073720;23;20408;-70
2023/01/03 02:27:24;;;;;;;5.10;3.67;;;;;;;3.65;100.00;102153.91;6063603;23;20037;-71
2023/01/03 02:30:05;;;;;;;4.30;4.10;;;;;;;3.73;100.00;102180.78;6085442;23;20014;-71
2023/01/03 02:32:58;;;;;;;3.58;3.38;;;;;;;3.71;100.00;102183.34;6088050;23;20205;-70
2023/01/03 02:35:43;;;;;;;3.72;3.55;;;;;;;3.68;100.00;102182.47;6018524;23;20473;-71
2023/01/03 02:38:30;;;;;;;4.38;4.13;;;;;;;3.65;100.00;102178.16;6061266;23;20026;-74
2023/01/03 02:41:22;;;;;;;4.05;3.80;;;;;;;3.62;100.00;102185.94;6073856;23;20033;-71
2023/01/03 02:44:08;;;;;;;14.90;3.90;;;;;;;3.42;100.00;102162.56;6089212;23;20029;-70
2023/01/03 02:46:50;;;;;;;3.70;3.50;;;;;;;3.38;100.00;102151.31;6056894;23;20286;-70
2023/01/03 02:49:28;;;;;;;3.60;3.50;;;;;;;3.33;100.00;102149.59;6081771;23;20034;-71
2023/01/03 02:52:00;;;;;;;4.93;3.58;;;;;;;3.53;100.00;102181.63;6072101;23;20053;-70
2023/01/03 02:54:32;;;;;;;4.20;4.00;;;;;;;3.52;100.00;102186.81;6051265;23;20394;-71
2023/01/03 02:57:06;;;;;;;3.50;3.40;;;;;;;3.50;100.00;102183.34;6084770;23;20388;-72
2023/01/03 02:59:41;;;;;;;3.42;3.30;;;;;;;3.24;100.00;102140.06;6091663;23;20628;-71
2023/01/03 03:02:10;;;;;;;3.20;3.10;;;;;;;3.46;100.00;102179.00;6062487;23;20091;-71
2023/01/03 03:04:39;;;;;;;3.95;3.60;;;;;;;3.45;100.00;102209.28;6095836;23;20068;-70
2023/01/03 03:07:18;;;;;;;4.57;4.28;;;;;;;3.46;100.00;102179.00;6087518;23;20085;-71
2023/01/03 03:15:21;;;;;;;3.30;3.20;;;;;;;3.26;100.00;102178.97;6092096;23;20533;-72
2023/01/03 03:17:52;;;;;;;4.05;3.85;;;;;;;2.87;100.00;102102.81;6082338;23;20480;-72
2023/01/03 03:26:00;;;;;;;4.00;3.70;;;;;;;3.25;100.00;102192.78;6085094;23;20402;-71
2023/01/03 03:28:34;;;;;;;4.10;3.90;;;;;;;2.84;100.00;102126.13;6112018;23;20022;-72
2023/01/03 03:31:07;;;;;;;3.75;3.55;;;;;;;3.03;100.00;102168.53;6078427;23;20042;-71
2023/01/03 03:34:01;;;;;;;3.15;3.05;;;;;;;3.17;100.00;102201.44;6105586;23;20025;-73
2023/01/03 03:36:42;;;;;;;3.50;3.30;;;;;;;2.83;100.00;102139.94;6061381;23;20033;-72
2023/01/03 03:44:59;;;;;;;3.45;3.28;;;;;;;3.02;100.00;102170.25;6082123;23;20041;-72
2023/01/03 03:45:02;;;;;;;3.20;3.10;;;;;;;2.73;100.00;102126.13;6084240;23;20416;-73
2023/01/03 03:47:47;;;;;;;3.70;3.50;;;;;;;3.12;100.00;102181.53;6068219;23;20551;-72
2023/01/03 03:50:20;;;;;;;3.67;3.55;;;;;;;3.12;100.00;102208.34;6102329;23;20352;-72
2023/01/03 03:52:51;;;;;;;3.40;3.30;;;;;;;2.08;100.00;102013.59;6058735;23;20042;-72
2023/01/03 03:55:24;;;;;;;3.63;3.47;;;;;;;3.11;100.00;102191.06;6056943;23;20033;-72
2023/01/03 03:58:00;;;;;;;3.22;3.13;;;;;;;3.13;100.00;102188.47;6088787;23;20018;-72
2023/01/03 04:00:32;;;;;;;3.30;3.20;;;;;;;3.09;100.00;102189.31;6108162;23;20041;-71
2023/01/03 04:03:00;;;;;;;3.53;3.42;;;;;;;3.03;100.00;102179.78;6077116;23;20017;-71
2023/01/03 04:05:33;;;;;;;3.45;3.35;;;;;;;2.32;100.00;102065.47;6105331;23;20101;-72
2023/01/03 04:08:00;;;;;;;3.60;3.50;;;;;;;3.03;100.00;102191.88;6074107;23;20013;-72
2023/01/03 04:10:26;;;;;;;3.40;3.30;;;;;;;2.61;100.00;102132.13;6091769;23;20010;-71
2023/01/03 04:12:59;;;;;;;3.25;3.15;;;;;;;2.56;100.00;102154.53;6104071;23;20496;-72
2023/01/03 04:15:25;;;;;;;3.88;3.67;;;;;;;2.78;100.00;102171.06;6064276;23;20480;-72
2023/01/03 04:17:52;;;;;;;3.97;3.78;;;;;;;2.30;100.00;102105.19;6117127;23;20372;-72
2023/01/03 04:20:18;;;;;;;3.88;3.60;;;;;;;2.47;100.00;102144.16;6086458;23;20018;-72
2023/01/03 04:22:45;;;;;;;3.33;3.20;;;;;;;2.81;100.00;102197.00;6099411;23;20037;-71
2023/01/03 04:25:11;;;;;;;3.15;3.05;;;;;;;2.78;100.00;102207.34;6091569;23;20100;-71
2023/01/03 04:27:37;;;;;;;3.90;3.70;;;;;;;2.74;100.00;102190.91;6097511;23;20021;-71
2023/01/03 04:30:05;;;;;;;3.38;3.28;;;;;;;2.02;100.00;102073.13;6055259;23;20361;-71
2023/01/03 04:32:32;;;;;;;4.13;3.65;;;;;;;2.10;100.00;102100.78;6097401;23;20090;-71
2023/01/03 04:34:58;;;;;;;4.07;3.78;;;;;;;2.68;100.00;102198.66;6080514;23;20021;-70
2023/01/03 04:37:24;;;;;;;3.40;3.20;;;;;;;2.32;100.00;102135.41;6089228;23;20542;-70
2023/01/03 04:39:51;;;;;;;3.20;3.10;;;;;;;1.91;100.00;102063.56;6088811;23;20042;-72
2023/01/03 04:45:03;;;;;;;3.38;3.28;;;;;;;1.91;100.00;102055.81;6078238;23;20038;-70
2023/01/03 04:47:30;;;;;;;3.90;3.70;;;;;;;1.67;100.00;102034.97;6065664;23;20030;-70
2023/01/03 04:49:56;;;;;;;3.40;3.30;;;;;;;2.16;100.00;102110.31;6060572;23;20034;-70
2023/01/03 04:52:23;;;;;;;3.30;3.20;;;;;;;2.52;100.00;102160.56;6105283;23;20228;-71
2023/01/03 04:54:49;;;;;;;3.83;3.63;;;;;;;2.84;100.00;102193.53;6084270;23;20099;-71
2023/01/03 04:57:16;;;;;;;3.30;3.20;;;;;;;2.32;100.00;102103.47;6104284;23;20272;-70
2023/01/03 04:59:42;;;;;;;3.47;3.38;;;;;;;2.56;100.00;102133.81;6094663;23;20173;-71
2023/01/03 05:02:09;;;;;;;3.63;3.42;;;;;;;2.27;100.00;102072.38;6085451;23;20006;-72
2023/01/03 05:04:35;;;;;;;4.22;3.92;;;;;;;2.96;100.00;102180.63;6074453;23;20018;-71
2023/01/03 05:07:02;;;;;;;3.50;3.30;;;;;;;1.77;100.00;101966.88;6087814;23;20336;-73
2023/01/03 05:09:28;;;;;;;3.40;3.30;;;;;;;2.17;100.00;102026.59;6094040;23;20026;-71
2023/01/03 05:11:55;;;;;;;3.35;3.15;;;;;;;2.93;100.00;102167.66;6082780;23;20026;-72
2023/01/03 05:14:23;;;;;;;3.75;3.58;;;;;;;3.22;100.00;102188.47;6082153;23;20021;-72
2023/01/03 05:16:50;;;;;;;3.83;3.63;;;;;;;2.58;100.00;102090.63;6115811;23;20334;-72
2023/01/03 05:19:16;;;;;;;3.08;2.97;;;;;;;2.83;100.00;102142.53;6090040;23;20020;-72
2023/01/03 05:27:13;;;;;;;4.60;4.35;;;;;;;1.43;100.00;101946.00;6078358;23;20399;-72
2023/01/03 05:29:40;;;;;;;4.03;3.83;;;;;;;2.10;100.00;102061.94;6113798;23;20051;-72
2023/01/03 05:32:06;;;;;;;4.80;3.75;;;;;;;2.82;100.00;102185.75;6085358;23;20464;-72
2023/01/03 05:34:33;;;;;;;3.40;3.20;;;;;;;1.95;100.00;102047.19;6111564;23;20092;-71
2023/01/03 05:36:59;;;;;;;3.97;3.67;;;;;;;2.40;100.00;102158.78;6061180;23;20115;-70
2023/01/03 05:39:25;;;;;;;3.47;3.38;;;;;;;2.36;100.00;102116.44;6091307;23;20071;-72
2023/01/03 05:42:01;;;;;;;3.40;3.20;;;;;;;2.26;100.00;102100.84;6088849;23;20041;-72
2023/01/03 05:44:29;;;;;;;3.95;3.70;;;;;;;2.31;100.00;102125.06;6083579;23;20080;-72
2023/01/03 05:46:57;;;;;;;3.60;3.45;;;;;;;2.65;100.00;102184.84;6076900;23;20164;-72
2023/01/03 05:49:24;;;;;;;3.33;3.22;;;;;;;2.39;100.00;102157.94;6088167;23;20037;-71
2023/01/03 05:51:50;;;;;;;3.50;3.40;;;;;;;2.49;100.00;102184.75;6080513;23;20046;-72
2023/01/03 05:54:18;;;;;;;4.05;3.85;;;;;;;2.50;100.00;102185.63;6104003;23;20029;-72
2023/01/03 05:56:45;;;;;;;3.70;3.50;;;;;;;1.70;100.00;102048.75;6067169;23;20524;-72
2023/01/03 05:59:12;;;;;;;3.13;3.03;;;;;;;2.49;100.00;102186.50;6091559;23;20038;-72
2023/01/03 06:01:39;;;;;;;3.30;3.20;;;;;;;1.93;100.00;102089.47;6054822;23;20030;-72
2023/01/03 06:04:05;;;;;;;3.30;3.20;;;;;;;2.14;100.00;102143.94;6114876;23;20033;-71
2023/01/03 06:06:32;;;;;;;3.30;3.20;;;;;;;0.90;100.00;101921.53;6092859;23;20056;-72
2023/01/03 06:08:58;;;;;;;3.10;3.00;;;;;;;2.47;100.00;102180.44;6069159;23;20014;-72
2023/01/03 06:11:25;;;;;;;8.35;4.53;;;;;;;2.49;100.00;102184.75;6092362;23;20021;-71
2023/01/03 06:13:52;;;;;;;3.50;3.40;;;;;;;2.49;100.00;102202.91;6120253;23;20174;-70
2023/01/03 06:19:06;;;;;;;4.10;3.90;;;;;;;2.74;100.00;102192.63;6077923;23;20030;-71
2023/01/03 06:21:33;;;;;;;3.42;3.33;;;;;;;2.47;100.00;102139.84;6086757;23;20433;-72
2023/01/03 06:24:00;;;;;;;3.33;3.22;;;;;;;2.88;100.00;102193.56;6062005;23;20017;-72
2023/01/03 06:26:27;;;;;;;3.50;3.30;;;;;;;2.29;100.00;102086.22;6109888;23;20091;-72
2023/01/03 06:28:53;;;;;;;4.43;4.13;;;;;;;2.81;100.00;102178.84;6081336;23;20444;-72
2023/01/03 06:31:20;;;;;;;3.35;3.22;;;;;;;2.72;100.00;102156.34;6110715;23;20485;-71
2023/01/03 06:33:47;;;;;;;3.55;3.35;;;;;;;2.84;100.00;102150.34;6084759;23;20315;-71
2023/01/03 06:36:16;;;;;;;3.90;3.60;;;;;;;3.29;100.00;102205.81;6085169;23;20100;-72
2023/01/03 06:38:42;;;;;;;3.92;3.72;;;;;;;3.26;100.00;102185.03;6104764;23;20077;-71
2023/01/03 06:41:09;;;;;;;3.30;3.20;;;;;;;3.46;100.00;102205.81;6081265;23;20216;-73
2023/01/03 06:43:36;;;;;;;3.78;3.58;;;;;;;3.00;100.00;102125.31;6083961;23;20030;-72
2023/01/03 06:54:22;;;;;;;3.67;3.53;;;;;;;3.30;100.00;102136.59;6086125;23;20448;-72
2023/01/03 06:56:50;;;;;;;3.50;3.30;;;;;;;3.74;100.00;102193.72;6068915;23;20025;-72
2023/01/03 06:59:18;;;;;;;3.10;3.00;;;;;;;3.83;100.00;102195.47;6059430;23;20026;-72
2023/01/03 07:01:46;;;;;;;3.80;3.60;;;;;;;3.21;100.00;102101.16;6084290;23;20394;-71
2023/01/03 07:04:13;;;;;;;4.20;3.97;;;;;;;3.43;100.00;102111.50;6090093;23;20033;-71
2023/01/03 07:06:40;;;;;;;4.15;3.95;;;;;;;4.00;100.00;102198.06;6118718;23;20025;-71
2023/01/03 07:09:08;;;;;;;3.78;3.58;;;;;;;3.48;100.00;102121.03;6061528;23;20587;-71
2023/01/03 07:11:35;;;;;;;3.85;3.65;;;;;;;3.75;100.00;102155.66;6113186;23;20030;-71
2023/01/03 07:14:02;;;;;;;3.53;3.42;;;;;;;3.81;100.00;102153.06;6080269;23;20050;-71
2023/01/03 07:16:31;;;;;;;3.45;3.25;;;;;;;4.16;100.00;102196.31;6088150;23;20054;-71
2023/01/03 07:18:58;;;;;;;3.75;3.55;;;;;;;4.20;100.00;102206.69;6080832;23;20046;-71
2023/01/03 07:21:27;;;;;;;3.25;3.05;;;;;;;3.99;100.00;102171.22;6085339;23;20296;-71
2023/01/03 07:23:55;;;;;;;3.95;3.75;;;;;;;3.32;100.00;102049.25;6113986;23;20259;-71
2023/01/03 07:26:23;;;;;;;6.00;4.07;;;;;;;3.72;100.00;102127.97;6084845;23;20020;-72
2023/01/03 07:28:51;;;;;;;3.72;3.55;;;;;;;4.07;100.00;102189.41;6097093;23;20047;-71
2023/01/03 07:31:19;;;;;;;4.18;3.78;;;;;;;4.42;100.00;102218.78;6084935;23;20042;-71
2023/01/03 07:33:46;;;;;;;4.15;3.83;;;;;;;4.32;100.00;102198.00;6121235;23;20537;-71
2023/01/03 07:36:14;;;;;;;3.83;3.63;;;;;;;4.54;100.00;102210.97;6087434;23;20032;-71
2023/01/03 07:38:43;;;;;;;3.83;3.63;;;;;;;4.20;100.00;102148.66;6104082;23;20463;-71
2023/01/03 07:41:10;;;;;;;3.78;3.58;;;;;;;4.16;100.00;102146.94;6067422;23;20448;-71
2023/01/03 07:43:39;;;;;;;3.60;3.50;;;;;;;4.60;100.00;102217.00;6107885;23;20045;-69
2023/01/03 07:46:16;;;;;;;3.55;3.35;;;;;;;4.61;100.00;102236.09;6090341;23;20080;-69
2023/01/03 07:48:44;;;;;;;4.25;4.05;;;;;;;4.06;100.00;102127.06;6105368;23;20158;-69
2023/01/03 07:51:13;;;;;;;3.90;3.70;;;;;;;3.84;100.00;102108.91;6067795;23;20087;-69
2023/01/03 07:53:40;;;;;;;3.92;3.72;;;;;;;4.62;100.00;102226.53;6110841;23;20029;-69
2023/01/03 07:56:13;;;;;;;4.28;4.07;;;;;;;4.58;100.00;102210.09;6082602;23;20033;-69
2023/01/03 07:58:42;;;;;;;4.03;3.83;;;;;;;4.77;100.00;102227.38;6106818;23;20036;-69
2023/01/03 08:01:14;;;;;;;3.53;3.40;;;;;;;4.82;100.00;102236.88;6089694;23;20071;-69
2023/01/03 08:03:41;;;;;;;4.28;4.07;;;;;;;4.67;100.00;102198.78;6108971;23;20534;-69
2023/01/03 08:06:12;;;;;;;4.07;3.78;;;;;;;4.83;100.00;102225.59;6088157;23;20225;-69
2023/01/03 08:08:39;;;;;;;4.53;4.32;;;;;;;4.66;100.00;102195.31;6087718;23;20073;-68
2023/01/03 08:13:51;;;;;;;3.50;3.40;;;;;;;5.13;100.00;102241.09;6086272;23;20235;-69
2023/01/03 08:16:18;;;;;;;3.70;3.50;;;;;;;3.51;100.00;101952.34;6087009;23;20612;-69
2023/01/03 08:18:47;;;;;;;4.55;4.15;;;;;;;5.15;100.00;102238.47;6084760;23;20296;-69
2023/01/03 08:21:14;;;;;;;4.15;3.88;;;;;;;5.10;100.00;102228.09;6109786;23;20076;-69
2023/01/03 08:23:41;;;;;;;4.38;4.18;;;;;;;4.99;100.00;102222.06;6068079;23;20045;-69
2023/01/03 08:26:14;;;;;;;3.95;3.75;;;;;;;4.72;100.00;102178.84;6095278;23;20238;-69
2023/01/03 08:28:41;;;;;;;;;;;;;;;5.06;100.00;102221.16;6087541;23;20044;-69
2023/01/03 08:31:17;;;;;;;3.78;3.58;;;;;;;4.67;100.00;102158.06;6112676;23;19905;-69
2023/01/03 08:33:59;;;;;;;4.90;4.57;;;;;;;5.19;100.00;102225.44;6064131;23;20029;-69
2023/01/03 08:36:30;;;;;;;3.67;3.50;;;;;;;5.22;100.00;102221.09;6077150;23;20389;-69
2023/01/03 08:39:05;;;;;;;4.20;4.00;;;;;;;5.23;100.00;102222.81;6074153;23;20775;-69
2023/01/03 08:41:42;;;;;;;3.70;3.50;;;;;;;4.79;100.00;102150.19;6092163;23;20507;-69
2023/01/03 08:44:09;;;;;;;4.40;3.90;;;;;;;5.18;100.00;102226.31;6090292;23;20026;-69
2023/01/03 08:46:44;;;;;;;4.22;4.00;;;;;;;5.19;100.00;102234.97;6115609;23;20282;-69
2023/01/03 08:49:12;;;;;;;4.18;3.97;;;;;;;4.96;100.00;102190.88;6084177;23;20021;-70
2023/01/03 08:51:38;;;;;;;4.10;3.90;;;;;;;5.11;100.00;102237.63;6122544;23;20460;-69
2023/01/03 08:54:05;;;;;;;3.95;3.75;;;;;;;4.78;100.00;102179.66;6095726;23;20177;-69
2023/01/03 08:56:33;;;;;;;4.15;3.92;;;;;;;4.79;100.00;102176.22;6105629;23;20014;-69
2023/01/03 08:59:00;;;;;;;3.90;3.70;;;;;;;4.76;100.00;102178.81;6058797;23;20024;-68
2023/01/03 09:01:26;;;;;;;3.72;3.55;;;;;;;5.16;100.00;102261.03;6089574;23;20273;-68
2023/01/03 09:03:53;;;;;;;3.70;3.58;;;;;;;5.34;100.00;102263.53;6057365;23;20056;-69
2023/01/03 09:06:20;;;;;;;3.90;3.60;;;;;;;5.44;100.00;102253.94;6116474;23;20021;-69
2023/01/03 09:08:46;;;;;;;4.40;4.20;;;;;;;5.11;100.00;102190.81;6046342;23;20097;-69
2023/01/03 09:11:13;;;;;;;4.18;3.83;;;;;;;5.62;100.00;102272.94;6102729;23;20490;-68
2023/01/03 09:13:40;;;;;;;4.78;4.57;;;;;;;4.93;100.00;102146.63;6061076;23;20029;-68
2023/01/03 09:16:09;;;;;;;3.95;3.75;;;;;;;5.68;100.00;102258.13;6081177;23;20010;-69
2023/01/03 09:18:37;;;;;;;5.65;5.25;;;;;;;5.76;100.00;102268.50;6103649;23;20267;-69
2023/01/03 09:21:04;;;;;;;4.05;3.85;;;;;;;5.77;100.00;102265.00;6085334;23;20056;-70
2023/01/03 09:23:32;;;;;;;4.10;3.90;;;;;;;5.91;100.00;102267.50;6087308;23;20031;-68
2023/01/03 09:26:01;;;;;;;4.18;3.97;;;;;;;6.03;100.00;102290.06;6083672;23;20037;-68
2023/01/03 09:28:27;;;;;;;4.70;4.35;;;;;;;6.19;100.00;102281.22;6086437;23;20045;-68
2023/01/03 09:30:54;;;;;;;4.18;3.97;;;;;;;6.27;100.00;102274.19;6109622;23;20020;-68
2023/01/03 09:33:20;;;;;;;4.40;4.00;;;;;;;6.04;100.00;102216.22;6087357;23;20246;-69
2023/01/03 09:35:47;;;;;;;4.07;3.88;;;;;;;6.55;100.00;102273.94;6089355;23;20016;-69
2023/01/03 09:38:13;;;;;;;4.00;3.80;;;;;;;6.60;100.00;102264.34;6060986;23;20021;-68
2023/01/03 09:40:42;;;;;;;4.47;4.28;;;;;;;6.79;100.00;102280.66;6086415;23;20092;-68
2023/01/03 09:43:19;;;;;;;3.83;3.63;;;;;;;6.97;100.00;102282.19;6087484;23;20018;-68
2023/01/03 09:45:57;;;;;;;4.50;4.30;;;;;;;7.13;100.00;102275.03;6111553;23;20042;-68
2023/01/03 09:48:34;;;;;;;7.18;4.25;;;;;;;7.32;100.00;102284.38;6058049;23;20445;-68
2023/01/03 09:51:01;;;;;;;4.70;4.50;;;;;;;7.50;100.00;102283.25;6064641;23;20418;-68
2023/01/03 10:05:22;;;;;;;5.03;4.70;;;;;;;7.71;100.00;102268.16;6084543;23;20369;-68
2023/01/03 10:08:10;;;;;;;4.38;4.18;;;;;;;7.61;100.00;102267.41;6063037;23;20495;-68
2023/01/03 10:10:50;;;;;;;4.72;4.53;;;;;;;7.66;100.00;102267.34;6099257;23;20028;-68
2023/01/03 10:13:42;;;;;;;4.30;4.00;;;;;;;7.75;100.00;102268.06;6049181;23;20031;-68
2023/01/03 10:16:16;;;;;;;4.20;4.00;;;;;;;7.47;100.00;102204.91;6073895;23;20033;-69
2023/01/03 10:19:01;;;;;;;8.30;5.00;;;;;;;7.94;100.00;102268.66;6080158;23;20022;-68
2023/01/03 10:21:43;;;;;;;4.10;3.90;;;;;;;8.07;100.00;102289.38;6108480;23;20041;-68
2023/01/03 10:24:23;;;;;;;4.13;3.92;;;;;;;8.18;100.00;102269.16;6084392;23;20088;-68
2023/01/03 10:26:55;;;;;;;4.80;4.47;;;;;;;8.33;100.00;102268.88;6082231;23;20034;-68
2023/01/03 10:29:22;;;;;;;4.20;4.00;;;;;;;8.39;100.00;102255.69;6084370;23;20033;-68
2023/01/03 10:31:57;;;;;;;4.70;4.40;;;;;;;8.52;100.00;102261.59;6074776;23;20014;-68
2023/01/03 10:34:24;;;;;;;10.60;5.13;;;;;;;8.16;100.00;102182.03;6080816;23;20042;-68
2023/01/03 10:36:50;;;;;;;4.75;4.45;;;;;;;8.81;100.00;102246.22;6042699;23;20099;-68
2023/01/03 10:39:28;;;;;;;7.38;4.43;;;;;;;8.58;100.00;102205.69;6070406;23;20026;-68
2023/01/03 10:41:58;;;;;;;4.57;4.28;;;;;;;8.80;100.00;102179.94;6075177;23;20499;-68
2023/01/03 10:44:27;;;;;;;7.28;4.55;;;;;;;9.01;100.00;102178.59;6107489;23;20017;-69
2023/01/03 10:46:56;;;;;;;12.25;4.90;;;;;;;9.68;100.00;102239.09;6085173;23;20036;-69
2023/01/03 10:49:27;;;;;;;4.35;4.10;;;;;;;9.73;100.00;102212.75;6106850;23;20030;-69
2023/01/03 10:51:58;;;;;;;4.60;4.40;;;;;;;9.89;100.00;102221.97;6064845;23;20055;-69
2023/01/03 10:54:41;;;;;;;6.20;4.72;;;;;;;10.14;100.00;102222.22;6082984;23;20022;-69
2023/01/03 10:57:37;;;;;;;6.50;4.40;;;;;;;10.26;100.00;102226.25;6084404;23;20377;-69
2023/01/03 11:00:28;;;;;;;4.60;4.40;;;;;;;10.64;100.00;102220.91;6044564;23;20014;-69
2023/01/03 11:03:10;;;;;;;7.47;4.82;;;;;;;10.78;100.00;102206.50;6085931;23;20459;-69
2023/01/03 11:05:38;;;;;;;4.88;4.55;;;;;;;10.79;100.00;102204.75;6058062;23;20029;-69
2023/01/03 11:08:13;;;;;;;4.68;4.47;;;;;;;10.40;100.00;102186.56;6088260;23;20046;-69
2023/01/03 11:10:55;;;;;;;5.22;4.82;;;;;;;10.19;100.00;102198.50;6077345;23;20021;-69
2023/01/03 11:13:48;;;;;;;4.53;4.32;;;;;;;10.11;100.00;102208.31;6086245;23;20064;-69
2023/01/03 11:16:17;;;;;;;4.40;4.20;;;;;;;9.81;100.00;102205.56;6081875;23;20035;-69
2023/01/03 11:19:05;;;;;;;5.10;4.80;;;;;;;9.75;100.00;102201.34;6089470;23;20351;-69
2023/01/03 11:21:49;;;;;;;4.22;4.00;;;;;;;9.54;100.00;102179.16;6077936;23;20066;-69
2023/01/03 11:24:40;;;;;;;5.25;4.53;;;;;;;9.70;100.00;102208.47;6077434;23;20037;-69
2023/01/03 11:27:18;;;;;;;4.43;4.22;;;;;;;9.70;100.00;102204.97;6082280;23;20018;-69
2023/01/03 11:30:19;;;;;;;4.72;4.53;;;;;;;9.55;100.00;102207.06;6107929;23;20018;-69
2023/01/03 11:33:02;;;;;;;4.35;4.15;;;;;;;9.00;100.00;102132.38;6057820;23;20029;-69
2023/01/03 11:36:01;;;;;;;4.30;4.10;;;;;;;9.40;100.00;102210.03;6064614;23;20739;-69
2023/01/03 11:38:46;;;;;;;4.50;4.30;;;;;;;9.24;100.00;102185.06;5977331;23;20110;-69
2023/01/03 11:41:28;;;;;;;4.70;4.40;;;;;;;9.40;100.00;102210.03;6104919;23;20041;-69
2023/01/03 11:44:21;;;;;;;4.60;4.20;;;;;;;9.42;100.00;102200.41;6068195;23;20029;-69
2023/01/03 11:47:12;;;;;;;7.18;4.20;;;;;;;9.53;100.00;102206.22;6106374;23;20257;-69
2023/01/03 11:49:53;;;;;;;4.50;4.30;;;;;;;9.51;100.00;102204.56;6080541;23;20270;-69
2023/01/03 11:52:32;;;;;;;4.15;3.95;;;;;;;9.53;100.00;102205.38;6087072;23;20085;-69
2023/01/03 11:55:23;;;;;;;4.22;4.03;;;;;;;9.67;100.00;102198.03;6083621;23;20455;-69
2023/01/03 11:57:54;;;;;;;4.25;4.05;;;;;;;9.69;100.00;102200.63;6091656;23;20030;-69
2023/01/03 12:00:32;;;;;;;4.20;4.00;;;;;;;9.77;100.00;102196.06;6086319;23;20259;-69
2023/01/03 12:03:27;;;;;;;4.20;3.95;;;;;;;9.75;100.00;102190.84;6090292;23;20037;-69
2023/01/03 12:06:20;;;;;;;4.18;3.97;;;;;;;10.35;100.00;102184.06;6113347;23;20024;-69
2023/01/03 12:08:57;;;;;;;5.00;4.70;;;;;;;10.87;100.00;102191.38;6087620;23;20022;-69
2023/01/03 12:11:35;;;;;;;4.60;4.20;;;;;;;10.98;98.49;102170.91;6114134;23;20411;-69
2023/01/03 12:14:23;;;;;;;4.65;4.43;;;;;;;10.98;94.19;102147.25;6086550;23;20009;-69
2023/01/03 12:16:59;;;;;;;4.85;4.65;;;;;;;11.21;93.62;102140.44;6082208;23;20041;-69
2023/01/03 12:19:41;;;;;;;4.45;4.25;;;;;;;11.38;93.00;102124.97;6107968;23;20429;-69
2023/01/03 12:22:35;;;;;;;4.40;4.20;;;;;;;11.17;88.55;102113.41;6069058;23;20013;-69
2023/01/03 12:25:17;;;;;;;4.20;4.00;;;;;;;10.94;88.54;102114.13;6092414;23;20177;-69
2023/01/03 12:27:47;;;;;;;4.90;4.60;;;;;;;11.02;88.53;102108.63;6089039;23;20010;-70
2023/01/03 12:30:29;;;;;;;4.50;4.30;;;;;;;10.13;88.46;101984.41;6088850;23;20022;-69
2023/01/03 12:33:04;;;;;;;4.70;4.50;;;;;;;10.63;88.71;102066.94;6089227;23;20076;-69
2023/01/03 12:35:41;;;;;;;4.32;4.13;;;;;;;10.62;88.33;102097.56;6080972;23;20072;-69
2023/01/03 12:38:10;;;;;;;4.72;4.53;;;;;;;10.43;89.43;102036.03;6094981;23;20022;-69
2023/01/03 12:40:55;;;;;;;4.55;4.35;;;;;;;10.60;86.71;102052.13;6077402;23;20049;-68
2023/01/03 12:43:27;;;;;;;4.85;4.45;;;;;;;10.86;85.96;102080.19;6103277;23;20014;-68